Time;durP1;ratioP1;P1;durP2;ratioP2;P2;SDS_P1;SDS_P2;PMS_P1;PMS_P2;Temp;Humidity;BMP_temperature;BMP_pressure;BME280_temperature;BME280_humidity;BME280_pressure;Samples;Min_cycle;Max_cycle;Signal;HPM_P1;HPM_P2
2021/05/22 00:00:28;;;;;;;8.43;3.52;;;;;;;11.31;70.05;101197.07;1694070;84;27995;-58
2021/05/22 00:02:57;;;;;;;11.80;4.05;;;;;;;11.27;69.45;101199.17;1691881;84;25700;-58
2021/05/22 00:05:24;;;;;;;9.18;3.42;;;;;;;11.28;70.36;101200.05;1677906;84;25699;-58
2021/05/22 00:07:51;;;;;;;7.53;3.70;;;;;;;11.20;69.53;101207.92;1694826;84;25752;-58
2021/05/22 00:10:18;;;;;;;6.00;2.90;;;;;;;11.21;69.50;101203.74;1681245;85;25601;-58
2021/05/22 00:12:47;;;;;;;10.80;3.67;;;;;;;11.28;69.63;101210.31;1695057;84;28053;-58
2021/05/22 00:15:17;;;;;;;10.00;3.35;;;;;;;11.32;69.46;101212.76;1677441;84;25675;-58
2021/05/22 00:17:44;;;;;;;15.83;2.77;;;;;;;11.33;69.06;101215.81;1694949;84;25415;-59
2021/05/22 00:20:14;;;;;;;13.72;3.42;;;;;;;11.37;69.86;101210.04;1676465;85;25659;-58
2021/05/22 00:22:41;;;;;;;18.77;3.50;;;;;;;11.33;69.40;101208.58;1661693;86;25671;-58
2021/05/22 00:25:10;;;;;;;6.37;2.87;;;;;;;11.34;69.18;101211.64;1656936;86;27395;-58
2021/05/22 00:27:37;;;;;;;11.95;2.87;;;;;;;11.36;68.98;101212.84;1660251;86;25615;-58
2021/05/22 00:30:07;;;;;;;9.90;3.12;;;;;;;11.37;69.41;101212.73;1650656;86;25655;-58
2021/05/22 00:32:34;;;;;;;10.70;3.45;;;;;;;11.39;69.10;101211.25;1649442;86;25727;-58
2021/05/22 00:35:01;;;;;;;7.67;3.52;;;;;;;11.36;68.58;101204.76;1649224;87;25591;-58
2021/05/22 00:37:28;;;;;;;10.63;4.08;;;;;;;11.37;68.46;101211.86;1648515;86;27422;-58
2021/05/22 00:39:55;;;;;;;14.90;3.58;;;;;;;11.36;68.41;101213.71;1644954;87;25581;-58
2021/05/22 00:42:23;;;;;;;27.58;4.72;;;;;;;11.37;68.13;101214.55;1700393;84;26367;-58
2021/05/22 00:45:14;;;;;;;16.27;3.62;;;;;;;11.33;68.04;101210.43;1694690;84;25759;-58
2021/05/22 00:47:45;;;;;;;16.85;3.50;;;;;;;11.30;67.82;101207.98;1660430;85;25569;-58
2021/05/22 00:50:18;;;;;;;17.00;3.20;;;;;;;11.25;68.03;101209.72;1652563;85;27447;-58
2021/05/22 00:52:45;;;;;;;4.97;2.87;;;;;;;11.16;68.16;101214.03;1651044;86;25645;-58
2021/05/22 00:55:14;;;;;;;9.08;3.83;;;;;;;11.12;68.18;101210.75;1650899;86;25693;-58
2021/05/22 00:57:43;;;;;;;10.72;3.35;;;;;;;11.07;68.08;101210.29;1651232;86;26296;-58
2021/05/22 01:00:16;;;;;;;10.10;3.10;;;;;;;10.94;68.34;101207.77;1651331;86;25628;-58
2021/05/22 01:02:44;;;;;;;11.60;3.70;;;;;;;10.91;68.09;101211.22;1650609;85;27455;-58
2021/05/22 01:05:13;;;;;;;9.13;2.70;;;;;;;10.87;68.38;101211.96;1651087;86;25651;-58
2021/05/22 01:07:44;;;;;;;12.75;3.62;;;;;;;10.86;68.86;101213.41;1651021;85;25741;-59
2021/05/22 01:10:12;;;;;;;13.40;3.92;;;;;;;10.85;68.91;101216.61;1650985;86;26317;-57
2021/05/22 01:12:43;;;;;;;16.80;3.27;;;;;;;10.87;69.35;101218.69;1651146;86;25600;-58
2021/05/22 01:15:17;;;;;;;10.48;3.10;;;;;;;10.90;69.25;101218.92;1651165;85;28143;-58
2021/05/22 01:17:48;;;;;;;11.12;3.08;;;;;;;10.92;69.19;101220.50;1651274;86;25513;-58
2021/05/22 01:20:32;;;;;;;23.62;3.42;;;;;;;10.93;69.35;101218.68;1651291;86;25693;-58
2021/05/22 01:23:04;;;;;;;9.85;3.30;;;;;;;10.92;70.36;101220.50;1650903;86;25778;-58
2021/05/22 01:25:36;;;;;;;8.80;3.33;;;;;;;10.75;69.86;101223.26;1651080;86;25706;-58
2021/05/22 01:28:07;;;;;;;11.30;3.45;;;;;;;10.72;70.46;101226.19;1698181;84;27400;-57
2021/05/22 01:30:35;;;;;;;16.27;3.42;;;;;;;10.73;70.31;101228.38;1712473;83;25716;-58
2021/05/22 01:33:07;;;;;;;15.05;3.08;;;;;;;10.78;70.55;101229.71;1717996;83;25554;-58
2021/05/22 01:35:33;;;;;;;8.40;2.90;;;;;;;10.79;70.83;101226.04;1717924;83;26378;-58
2021/05/22 01:38:00;;;;;;;15.45;3.58;;;;;;;10.76;70.65;101222.25;1717660;83;25689;-58
2021/05/22 01:40:27;;;;;;;7.12;3.05;;;;;;;10.77;70.33;101228.00;1679891;85;27429;-58
2021/05/22 01:42:54;;;;;;;7.00;2.58;;;;;;;10.75;70.26;101230.45;1694888;84;25724;-58
2021/05/22 01:45:29;;;;;;;8.15;2.95;;;;;;;10.73;70.27;101231.06;1697420;84;25573;-58
2021/05/22 01:47:58;;;;;;;5.33;2.70;;;;;;;10.72;70.25;101223.50;1702532;83;25630;-58
2021/05/22 01:50:27;;;;;;;10.58;2.80;;;;;;;10.74;70.22;101232.30;1701025;84;25841;-58
2021/05/22 01:52:56;;;;;;;7.55;2.55;;;;;;;10.78;70.17;101230.22;1710631;83;27420;-58
2021/05/22 01:55:24;;;;;;;5.03;2.80;;;;;;;10.81;69.98;101224.56;1692076;84;25749;-58
2021/05/22 01:57:51;;;;;;;10.20;2.90;;;;;;;10.84;69.92;101222.97;1669395;85;25539;-58
2021/05/22 02:00:20;;;;;;;6.80;3.20;;;;;;;10.85;69.74;101222.50;1670994;85;25776;-58
2021/05/22 02:03:10;;;;;;;10.85;3.70;;;;;;;10.85;69.51;101221.99;1677629;84;25576;-58
2021/05/22 02:05:39;;;;;;;7.37;2.90;;;;;;;10.86;69.41;101233.60;1676854;84;27435;-58
2021/05/22 02:08:13;;;;;;;7.90;3.05;;;;;;;10.83;69.14;101231.19;1694052;84;25323;-59
2021/05/22 02:10:41;;;;;;;8.73;3.58;;;;;;;10.80;68.99;101239.03;1670988;84;25630;-58
2021/05/22 02:13:08;;;;;;;10.40;3.37;;;;;;;10.75;68.82;101240.75;1689175;84;25694;-59
2021/05/22 02:15:39;;;;;;;7.00;2.92;;;;;;;10.68;68.87;101246.75;1682209;84;25580;-58
2021/05/22 02:18:09;;;;;;;10.30;3.10;;;;;;;10.58;68.74;101247.50;1668629;85;28131;-58
2021/05/22 02:20:37;;;;;;;12.73;3.22;;;;;;;10.52;68.52;101260.11;1669224;85;25590;-58
2021/05/22 02:23:07;;;;;;;9.73;3.42;;;;;;;10.46;68.64;101260.11;1669276;85;25664;-58
2021/05/22 02:25:34;;;;;;;5.08;2.80;;;;;;;10.43;68.58;101258.16;1707975;82;25753;-58
2021/05/22 02:28:05;;;;;;;8.63;3.35;;;;;;;10.37;68.50;101254.13;1673202;85;26385;-58
2021/05/22 02:30:34;;;;;;;7.35;3.00;;;;;;;10.31;68.57;101262.16;1695540;83;27442;-58
2021/05/22 02:33:04;;;;;;;9.15;3.37;;;;;;;10.25;68.94;101266.69;1697143;83;25812;-58
2021/05/22 02:35:33;;;;;;;16.02;3.02;;;;;;;10.18;69.02;101270.34;1697087;84;25723;-58
2021/05/22 02:38:01;;;;;;;11.35;2.83;;;;;;;10.12;69.32;101278.91;1666027;84;25772;-58
2021/05/22 02:40:31;;;;;;;15.30;2.90;;;;;;;10.07;69.49;101273.02;1717362;83;25577;-58
2021/05/22 02:43:02;;;;;;;5.20;3.05;;;;;;;10.08;69.70;101279.27;1681815;85;27404;-58
2021/05/22 02:45:30;;;;;;;14.00;3.80;;;;;;;10.09;69.84;101271.54;1678032;85;25574;-58
2021/05/22 02:48:00;;;;;;;5.90;3.47;;;;;;;10.09;70.21;101270.20;1678169;85;25868;-57
2021/05/22 02:50:29;;;;;;;5.28;2.95;;;;;;;10.12;70.83;101276.22;1694617;84;25666;-58
2021/05/22 02:52:58;;;;;;;10.08;2.70;;;;;;;10.13;70.41;101275.72;1676519;84;25685;-58
2021/05/22 02:55:26;;;;;;;7.80;3.00;;;;;;;10.17;70.65;101269.97;1675109;85;27482;-58
2021/05/22 02:57:54;;;;;;;8.25;3.27;;;;;;;10.21;70.73;101272.43;1711616;82;25648;-58
2021/05/22 03:00:22;;;;;;;8.28;2.85;;;;;;;10.26;71.01;101280.50;1677770;84;25660;-58
2021/05/22 03:02:50;;;;;;;4.08;3.08;;;;;;;10.30;71.40;101276.58;1696575;84;26477;-58
2021/05/22 03:05:17;;;;;;;7.35;2.72;;;;;;;10.34;71.34;101278.53;1696766;84;25665;-58
2021/05/22 03:07:45;;;;;;;6.28;3.25;;;;;;;10.39;71.25;101287.14;1696549;84;27501;-58
2021/05/22 03:10:13;;;;;;;13.68;4.03;;;;;;;10.41;71.39;101282.97;1677125;84;25636;-58
2021/05/22 03:12:40;;;;;;;11.10;3.00;;;;;;;10.43;71.15;101283.20;1680912;85;25366;-58
2021/05/22 03:15:09;;;;;;;9.85;2.62;;;;;;;10.46;70.97;101282.97;1696938;84;25811;-58
2021/05/22 03:17:37;;;;;;;7.60;2.92;;;;;;;10.55;71.03;101277.83;1696561;83;25591;-57
2021/05/22 03:20:07;;;;;;;13.15;3.08;;;;;;;10.63;71.18;101279.41;1717428;82;28027;-57
2021/05/22 03:22:35;;;;;;;13.22;2.98;;;;;;;10.72;71.16;101281.83;1681889;85;25406;-57
2021/05/22 03:25:05;;;;;;;4.05;2.60;;;;;;;10.77;71.33;101284.52;1697425;84;25600;-57
2021/05/22 03:27:32;;;;;;;5.72;2.58;;;;;;;10.83;71.19;101293.92;1663640;85;26748;-57
2021/05/22 03:29:59;;;;;;;9.13;2.83;;;;;;;10.90;71.26;101287.05;1683419;83;25641;-58
2021/05/22 03:32:26;;;;;;;6.83;3.05;;;;;;;10.99;71.14;101287.28;1647104;87;27510;-57
2021/05/22 03:34:53;;;;;;;14.13;2.95;;;;;;;11.04;70.86;101291.30;1637824;87;25733;-58
2021/05/22 03:37:20;;;;;;;7.25;3.27;;;;;;;11.07;70.58;101302.34;1620155;88;25538;-57
2021/05/22 03:39:47;;;;;;;12.13;3.25;;;;;;;11.10;70.54;101302.06;1621232;88;26396;-57
2021/05/22 03:42:15;;;;;;;8.25;3.15;;;;;;;11.15;70.56;101305.25;1646614;87;25681;-57
2021/05/22 03:44:42;;;;;;;11.57;3.65;;;;;;;11.19;70.57;101299.95;1664784;84;27428;-57
2021/05/22 03:47:09;;;;;;;10.75;4.10;;;;;;;11.24;70.66;101301.80;1673261;85;25492;-57
2021/05/22 03:49:38;;;;;;;10.00;3.58;;;;;;;11.27;70.82;101307.41;1670109;85;25667;-57
2021/05/22 03:52:05;;;;;;;7.62;3.62;;;;;;;11.32;71.09;101300.30;1671929;85;25746;-57
2021/05/22 03:54:32;;;;;;;9.88;3.87;;;;;;;11.32;71.09;101298.44;1672023;85;25659;-57
2021/05/22 03:56:59;;;;;;;12.47;4.20;;;;;;;11.33;70.74;101300.16;1671918;85;27432;-58
2021/05/22 03:59:26;;;;;;;8.00;3.80;;;;;;;11.34;70.52;101303.22;1669320;85;25650;-57
2021/05/22 04:01:53;;;;;;;12.30;4.33;;;;;;;11.36;70.53;101299.04;1671210;85;25611;-58
2021/05/22 04:04:20;;;;;;;16.87;4.03;;;;;;;11.39;70.52;101296.94;1672258;85;25766;-58
2021/05/22 04:06:47;;;;;;;14.95;4.00;;;;;;;11.43;70.59;101298.88;1671921;85;25618;-57
2021/05/22 04:09:14;;;;;;;16.97;4.20;;;;;;;11.46;70.63;101304.02;1672340;84;27499;-58
2021/05/22 04:11:41;;;;;;;14.75;3.72;;;;;;;11.49;70.52;101304.25;1671623;84;26144;-57
2021/05/22 04:14:07;;;;;;;13.58;4.37;;;;;;;11.54;70.66;101306.92;1671670;85;25812;-57
2021/05/22 04:16:34;;;;;;;10.32;3.90;;;;;;;11.61;71.02;101311.31;1652683;85;25757;-57
2021/05/22 04:19:02;;;;;;;5.35;3.17;;;;;;;11.67;71.33;101318.02;1671615;85;25635;-57
2021/05/22 04:21:30;;;;;;;9.13;3.65;;;;;;;11.77;71.30;101323.47;1671871;85;27485;-57
2021/05/22 04:23:58;;;;;;;13.48;4.15;;;;;;;11.87;71.46;101330.67;1671825;85;25719;-57
2021/05/22 04:26:25;;;;;;;11.68;3.60;;;;;;;11.96;71.56;101324.13;1673728;84;25610;-58
2021/05/22 04:28:52;;;;;;;13.40;3.33;;;;;;;12.08;71.80;101325.78;1700213;83;26513;-58
2021/05/22 04:31:19;;;;;;;19.85;4.33;;;;;;;12.21;71.82;101328.27;1704064;83;25297;-57
2021/05/22 04:33:46;;;;;;;20.65;3.52;;;;;;;12.32;71.88;101317.91;1740672;81;27421;-58
2021/05/22 04:36:13;;;;;;;20.97;3.72;;;;;;;12.47;71.87;101315.68;1735707;82;25678;-58
2021/05/22 04:38:40;;;;;;;15.53;3.20;;;;;;;12.60;71.75;101306.88;1695403;84;25623;-58
2021/05/22 04:41:08;;;;;;;18.98;4.30;;;;;;;12.71;71.27;101307.25;1695227;84;26269;-58
2021/05/22 04:43:36;;;;;;;7.33;3.65;;;;;;;12.80;71.30;101302.89;1699894;83;25760;-57
2021/05/22 04:46:03;;;;;;;6.80;4.75;;;;;;;12.90;71.32;101305.61;1711090;83;27362;-57
2021/05/22 04:48:30;;;;;;;10.08;6.10;;;;;;;13.02;71.60;101311.27;1735528;82;25705;-57
2021/05/22 04:50:58;;;;;;;10.03;6.20;;;;;;;13.12;71.34;101309.92;1728222;82;25640;-58
2021/05/22 04:53:25;;;;;;;8.98;6.65;;;;;;;13.18;71.09;101303.94;1703024;84;25768;-58
2021/05/22 04:55:52;;;;;;;11.35;6.17;;;;;;;13.26;71.01;101297.84;1703667;84;26327;-58
2021/05/22 04:58:19;;;;;;;18.95;6.12;;;;;;;13.34;71.30;101295.29;1703392;83;27388;-58
2021/05/22 05:00:46;;;;;;;11.28;4.28;;;;;;;13.40;71.03;101293.39;1704320;84;25711;-57
2021/05/22 05:03:13;;;;;;;8.28;4.55;;;;;;;13.46;71.04;101287.45;1660104;85;25675;-57
2021/05/22 05:05:40;;;;;;;7.15;3.80;;;;;;;13.50;70.75;101289.84;1692011;84;25744;-57
2021/05/22 05:08:07;;;;;;;9.33;4.35;;;;;;;13.58;70.94;101292.20;1692202;82;25786;-58
2021/05/22 05:10:34;;;;;;;9.38;3.50;;;;;;;13.65;70.98;101290.27;1692025;84;27469;-58
2021/05/22 05:13:01;;;;;;;7.97;3.33;;;;;;;13.71;70.78;101291.06;1692009;82;26140;-57
2021/05/22 05:15:29;;;;;;;5.67;3.12;;;;;;;13.73;71.48;101292.62;1692060;84;25601;-58
2021/05/22 05:17:56;;;;;;;4.35;3.58;;;;;;;13.76;71.23;101297.72;1692221;84;25841;-58
2021/05/22 05:20:23;;;;;;;13.55;3.77;;;;;;;13.77;70.85;101290.48;1695091;82;25585;-58
2021/05/22 05:22:51;;;;;;;10.80;3.33;;;;;;;13.79;70.92;101292.55;1670474;85;27805;-57
2021/05/22 05:25:18;;;;;;;7.62;3.37;;;;;;;13.83;71.60;101295.80;1670425;85;25572;-57
2021/05/22 05:27:45;;;;;;;7.10;3.27;;;;;;;13.84;71.48;101305.63;1658104;86;25647;-57
2021/05/22 05:30:14;;;;;;;9.55;3.30;;;;;;;13.89;71.60;101310.97;1652889;86;26372;-57
2021/05/22 05:32:41;;;;;;;5.53;2.75;;;;;;;13.95;72.46;101306.80;1646954;87;25695;-58
2021/05/22 05:35:12;;;;;;;7.80;3.08;;;;;;;13.99;72.72;101308.71;1646865;87;28112;-58
2021/05/22 05:37:39;;;;;;;16.23;4.03;;;;;;;14.04;72.30;101310.50;1656466;85;25522;-58
2021/05/22 05:40:08;;;;;;;6.97;3.22;;;;;;;14.11;72.36;101307.55;1658417;86;25578;-58
2021/05/22 05:42:35;;;;;;;10.88;3.60;;;;;;;14.17;72.16;101308.31;1650982;86;26353;-58
2021/05/22 05:45:04;;;;;;;6.42;3.30;;;;;;;14.26;72.23;101306.59;1653814;86;25664;-58
2021/05/22 05:47:31;;;;;;;8.20;3.37;;;;;;;14.33;72.45;101306.34;1698797;83;27391;-58
2021/05/22 05:49:58;;;;;;;10.72;3.35;;;;;;;14.42;72.47;101307.81;1717971;82;25569;-59
2021/05/22 05:52:25;;;;;;;9.80;2.83;;;;;;;14.50;72.29;101303.86;1714266;82;25657;-59
2021/05/22 05:54:52;;;;;;;7.22;2.77;;;;;;;14.57;71.96;101303.61;1691605;84;25746;-59
2021/05/22 05:57:19;;;;;;;8.28;3.12;;;;;;;14.64;71.86;101297.97;1691553;84;25626;-59
2021/05/22 05:59:46;;;;;;;7.00;2.83;;;;;;;14.75;71.73;101303.71;1683994;84;27489;-57
2021/05/22 06:02:12;;;;;;;5.20;2.40;;;;;;;14.82;71.51;101303.45;1677402;85;26226;-58
2021/05/22 06:04:39;;;;;;;9.93;2.90;;;;;;;14.88;71.21;101309.29;1677854;85;25570;-59
2021/05/22 06:07:07;;;;;;;5.65;2.65;;;;;;;14.95;71.24;101311.22;1702039;84;25766;-59
2021/05/22 06:09:35;;;;;;;6.72;3.05;;;;;;;15.01;71.58;101311.11;1655497;83;25669;-58
2021/05/22 06:12:02;;;;;;;10.23;3.17;;;;;;;15.10;71.34;101313.43;1652378;86;27985;-62
2021/05/22 06:14:32;;;;;;;11.38;3.10;;;;;;;15.17;71.18;101315.88;1699741;83;25619;-58
2021/05/22 06:16:58;;;;;;;9.38;3.50;;;;;;;15.24;70.91;101313.41;1659729;85;25563;-58
2021/05/22 06:19:25;;;;;;;24.35;3.95;;;;;;;15.30;70.94;101317.69;1692939;83;25734;-58
2021/05/22 06:21:52;;;;;;;12.47;3.10;;;;;;;15.41;70.93;101318.47;1689861;83;25712;-58
2021/05/22 06:24:19;;;;;;;8.70;3.72;;;;;;;15.48;70.81;101312.28;1685792;85;27291;-58
2021/05/22 06:26:46;;;;;;;13.90;3.50;;;;;;;15.55;70.83;101303.03;1685661;85;26658;-59
2021/05/22 06:29:13;;;;;;;4.50;3.42;;;;;;;15.62;70.68;101302.75;1676136;84;25594;-59
2021/05/22 06:31:41;;;;;;;8.03;2.65;;;;;;;15.70;70.18;101303.81;1704456;82;26567;-58
2021/05/22 06:34:10;;;;;;;6.80;2.85;;;;;;;15.76;70.14;101291.84;1704483;83;25548;-61
2021/05/22 06:36:37;;;;;;;6.75;3.00;;;;;;;15.85;69.81;101285.16;1692743;83;27216;-61
2021/05/22 06:39:06;;;;;;;7.67;2.90;;;;;;;15.95;69.67;101289.45;1655182;86;25650;-58
2021/05/22 06:41:33;;;;;;;8.10;2.83;;;;;;;16.05;69.49;101290.70;1654332;86;25693;-59
2021/05/22 06:44:00;;;;;;;8.35;2.67;;;;;;;16.16;69.30;101284.17;1657182;85;26401;-58
2021/05/22 06:48:58;;;;;;;4.85;2.80;;;;;;;16.38;68.79;101280.54;1676001;85;27425;-63
2021/05/22 06:51:28;;;;;;;8.83;2.85;;;;;;;16.50;68.65;101283.33;1676153;85;26238;-58
2021/05/22 06:53:55;;;;;;;5.80;2.45;;;;;;;16.62;68.49;101278.45;1676303;84;25676;-58
2021/05/22 06:56:25;;;;;;;8.38;3.83;;;;;;;16.75;68.20;101286.12;1676154;84;25771;-62
2021/05/22 06:58:52;;;;;;;5.53;2.65;;;;;;;16.88;67.52;101283.81;1675796;83;25418;-61
2021/05/22 07:01:19;;;;;;;8.23;2.80;;;;;;;17.04;67.13;101286.25;1670911;85;27439;-62
2021/05/22 07:03:46;;;;;;;11.12;2.80;;;;;;;17.18;66.41;101290.19;1660921;85;26011;-61
2021/05/22 07:06:13;;;;;;;6.97;2.52;;;;;;;17.29;64.81;101281.72;1651216;85;25655;-59
2021/05/22 07:08:40;;;;;;;10.25;2.80;;;;;;;17.40;63.48;101287.83;1652703;85;25770;-61
2021/05/22 07:11:08;;;;;;;13.38;2.87;;;;;;;17.50;63.25;101291.23;1651380;86;25532;-58
2021/05/22 07:13:34;;;;;;;6.08;2.15;;;;;;;17.59;62.78;101284.78;1651840;86;28079;-59
2021/05/22 07:16:04;;;;;;;10.48;2.22;;;;;;;17.67;61.19;101282.58;1652684;86;25600;-58
2021/05/22 07:18:30;;;;;;;10.28;3.12;;;;;;;17.74;60.57;101282.75;1652403;85;25648;-58
2021/05/22 07:20:57;;;;;;;8.73;2.33;;;;;;;17.81;59.33;101291.40;1653087;86;25774;-58
2021/05/22 07:23:24;;;;;;;7.28;2.35;;;;;;;17.88;57.48;101282.57;1707902;83;27200;-59
2021/05/22 07:25:51;;;;;;;11.90;2.80;;;;;;;17.94;57.34;101280.52;1700834;83;27468;-59
2021/05/22 07:28:18;;;;;;;11.90;2.47;;;;;;;18.03;57.10;101279.51;1714742;82;25659;-59
2021/05/22 07:30:45;;;;;;;6.83;2.30;;;;;;;18.12;56.24;101271.66;1709852;82;25587;-59
2021/05/22 07:33:14;;;;;;;6.45;2.35;;;;;;;18.22;56.94;101260.56;1693991;83;25752;-59
2021/05/22 07:35:42;;;;;;;7.72;1.85;;;;;;;18.34;56.66;101256.94;1691443;83;25721;-59
2021/05/22 07:38:08;;;;;;;5.25;2.42;;;;;;;18.44;55.51;101254.86;1699071;84;27439;-59
2021/05/22 07:40:36;;;;;;;11.18;1.92;;;;;;;18.59;53.51;101254.14;1700455;84;25652;-62
2021/05/22 07:43:06;;;;;;;6.87;1.72;;;;;;;18.69;52.46;101249.30;1686969;84;25744;-60
2021/05/22 07:45:33;;;;;;;4.80;1.30;;;;;;;18.79;51.13;101242.28;1691053;84;25765;-60
2021/05/22 07:48:00;;;;;;;7.92;1.55;;;;;;;18.92;49.53;101246.64;1696394;84;25601;-60
2021/05/22 07:50:28;;;;;;;4.47;1.70;;;;;;;19.05;48.33;101248.77;1689247;84;27431;-59
2021/05/22 07:52:55;;;;;;;7.67;2.25;;;;;;;19.17;47.90;101247.87;1697422;84;26015;-60
2021/05/22 07:55:22;;;;;;;5.03;1.40;;;;;;;19.29;46.70;101248.78;1657244;86;25371;-60
2021/05/22 07:57:49;;;;;;;9.65;1.80;;;;;;;19.44;46.04;101236.56;1663184;85;25650;-60
2021/05/22 08:00:18;;;;;;;9.20;1.40;;;;;;;19.57;45.64;101241.39;1699750;83;25570;-59
2021/05/22 08:02:45;;;;;;;5.55;1.60;;;;;;;19.73;43.27;101239.88;1691934;84;28305;-60
2021/05/22 08:05:14;;;;;;;5.08;1.60;;;;;;;19.82;44.39;101240.13;1697886;84;25605;-60
2021/05/22 08:07:41;;;;;;;4.20;1.75;;;;;;;19.95;43.75;101229.95;1694623;83;25717;-60
2021/05/22 08:10:10;;;;;;;3.37;1.45;;;;;;;20.08;44.10;101229.30;1697073;84;25795;-59
2021/05/22 08:12:37;;;;;;;5.22;1.27;;;;;;;20.21;43.96;101221.84;1695360;84;25674;-60
2021/05/22 08:15:07;;;;;;;3.37;1.60;;;;;;;20.36;43.57;101227.80;1693188;84;27803;-60
2021/05/22 08:17:34;;;;;;;3.30;1.20;;;;;;;20.51;42.85;101220.95;1695132;83;25529;-59
2021/05/22 08:20:01;;;;;;;5.08;1.40;;;;;;;20.64;42.22;101209.66;1697474;84;25581;-60
2021/05/22 08:22:28;;;;;;;2.50;1.12;;;;;;;20.80;40.96;101216.79;1694584;84;25755;-59
2021/05/22 08:24:56;;;;;;;3.90;1.37;;;;;;;20.93;40.78;101209.78;1694207;84;25820;-59
2021/05/22 08:27:23;;;;;;;2.85;1.30;;;;;;;21.04;42.25;101205.67;1700223;82;27771;-60
2021/05/22 08:29:50;;;;;;;5.97;1.70;;;;;;;21.14;41.61;101201.27;1695658;84;25670;-60
2021/05/22 08:32:17;;;;;;;9.13;1.57;;;;;;;21.20;40.50;101195.83;1691944;84;25704;-60
2021/05/22 08:34:44;;;;;;;5.17;1.52;;;;;;;21.33;41.69;101194.27;1682305;84;25835;-60
2021/05/22 08:37:13;;;;;;;3.77;1.45;;;;;;;21.44;42.18;101191.00;1675301;85;25574;-58
2021/05/22 08:39:44;;;;;;;4.80;1.80;;;;;;;21.55;41.29;101190.47;1679296;83;27510;-58
2021/05/22 08:42:11;;;;;;;5.42;1.72;;;;;;;21.70;41.95;101190.37;1679374;83;25740;-57
2021/05/22 08:44:39;;;;;;;11.15;1.52;;;;;;;21.87;41.57;101200.50;1678138;83;25579;-57
2021/05/22 08:47:07;;;;;;;3.08;1.80;;;;;;;22.06;41.12;101188.49;1678818;83;26583;-60
2021/05/22 08:49:41;;;;;;;7.40;1.20;;;;;;;22.26;39.46;101191.86;1678299;83;26247;-60
2021/05/22 08:52:18;;;;;;;3.52;1.55;;;;;;;22.41;40.46;101184.91;1681091;83;27800;-61
2021/05/22 08:54:47;;;;;;;17.32;1.65;;;;;;;22.60;38.36;101186.02;1659635;85;25627;-58
2021/05/22 08:57:14;;;;;;;5.40;1.20;;;;;;;22.72;37.56;101189.86;1680510;83;25358;-58
2021/05/22 08:59:45;;;;;;;2.80;1.30;;;;;;;22.78;37.72;101197.75;1677630;84;26058;-59
2021/05/22 09:02:17;;;;;;;4.05;1.07;;;;;;;22.87;36.19;101186.08;1657973;85;25613;-59
2021/05/22 09:05:22;;;;;;;3.17;1.15;;;;;;;22.94;35.49;101186.92;1678682;83;27454;-59
2021/05/22 09:07:57;;;;;;;4.55;1.17;;;;;;;23.06;35.13;101187.15;1664078;83;25736;-59
2021/05/22 09:10:48;;;;;;;1.50;0.93;;;;;;;23.26;34.42;101188.59;1678214;83;25558;-60
2021/05/22 09:13:30;;;;;;;4.65;1.00;;;;;;;23.47;34.38;101176.55;1677963;84;25814;-59
2021/05/22 09:16:09;;;;;;;6.80;1.32;;;;;;;23.70;34.31;101166.48;1678894;83;25922;-60
2021/05/22 09:18:40;;;;;;;4.47;1.30;;;;;;;23.99;33.81;101163.48;1673016;84;27412;-60
2021/05/22 09:21:11;;;;;;;3.42;1.30;;;;;;;24.30;33.34;101168.74;1679098;83;26314;-59
2021/05/22 09:23:42;;;;;;;3.42;1.35;;;;;;;24.59;33.15;101166.48;1679652;84;25502;-60
2021/05/22 09:26:16;;;;;;;5.45;1.40;;;;;;;24.93;32.26;101169.90;1678438;83;25906;-60
2021/05/22 09:28:50;;;;;;;7.62;1.40;;;;;;;25.20;31.50;101171.94;1679432;84;25369;-59
2021/05/22 09:31:22;;;;;;;2.77;1.15;;;;;;;25.56;31.70;101168.14;1679249;84;28067;-60
2021/05/22 09:33:50;;;;;;;13.58;1.00;;;;;;;25.85;29.60;101162.46;1669400;84;25619;-60
2021/05/22 09:36:18;;;;;;;7.97;1.00;;;;;;;26.09;29.69;101151.60;1641115;85;26084;-60
2021/05/22 09:38:52;;;;;;;9.93;1.57;;;;;;;26.37;30.23;101151.02;1629495;86;26576;-60
2021/05/22 09:41:30;;;;;;;7.35;1.35;;;;;;;26.67;30.06;101159.02;1668177;85;25599;-60
2021/05/22 09:44:14;;;;;;;2.15;1.10;;;;;;;27.06;29.59;101160.88;1602287;87;27810;-59
2021/05/22 09:46:50;;;;;;;4.30;1.00;;;;;;;27.29;28.48;101150.95;1678613;84;25781;-60
2021/05/22 09:49:32;;;;;;;2.98;1.07;;;;;;;27.36;29.47;101148.91;1676326;84;25669;-60
2021/05/22 09:52:08;;;;;;;1.50;0.93;;;;;;;27.62;26.91;101148.98;1630745;86;26530;-61
2021/05/22 09:54:41;;;;;;;5.53;1.17;;;;;;;27.67;25.57;101137.76;1670030;85;25733;-60
2021/05/22 09:57:10;;;;;;;;;;;;;;;27.89;26.62;101133.81;1627888;86;27402;-60
2021/05/22 09:59:38;;;;;;;6.58;1.65;;;;;;;28.18;25.36;101136.66;1681411;83;25713;-58
2021/05/22 10:02:05;;;;;;;5.90;1.20;;;;;;;28.23;25.02;101133.46;1682917;83;25625;-58
2021/05/22 10:04:32;;;;;;;4.28;0.75;;;;;;;28.35;25.89;101144.48;1679425;83;26218;-58
2021/05/22 10:06:59;;;;;;;8.83;0.93;;;;;;;28.50;24.87;101127.86;1631568;87;25778;-59
2021/05/22 10:09:28;;;;;;;2.10;0.90;;;;;;;28.87;24.30;101121.36;1675773;85;27410;-59
2021/05/22 10:12:12;;;;;;;4.47;1.17;;;;;;;28.95;24.92;101122.05;1630555;86;25743;-59
2021/05/22 10:14:44;;;;;;;6.60;1.05;;;;;;;29.28;25.33;101122.56;1679448;83;25615;-59
2021/05/22 10:17:14;;;;;;;4.72;1.00;;;;;;;29.22;24.15;101122.20;1678111;83;25711;-59
2021/05/22 10:19:41;;;;;;;3.87;0.98;;;;;;;29.10;22.79;101122.83;1687539;83;25731;-59
2021/05/22 10:22:09;;;;;;;1.65;0.90;;;;;;;28.92;24.06;101117.84;1631377;87;27486;-59
2021/05/22 10:24:37;;;;;;;3.08;0.93;;;;;;;28.92;25.27;101109.53;1643342;86;25647;-59
2021/05/22 10:27:05;;;;;;;3.05;0.98;;;;;;;29.12;25.17;101110.95;1686131;84;25885;-59
2021/05/22 10:29:33;;;;;;;7.30;1.10;;;;;;;29.35;22.88;101112.20;1704763;84;25744;-59
2021/05/22 10:32:01;;;;;;;6.22;1.35;;;;;;;29.42;20.80;101110.61;1703519;84;25309;-59
2021/05/22 10:34:35;;;;;;;2.02;0.93;;;;;;;29.47;20.16;101097.38;1681675;83;27569;-59
2021/05/22 10:37:03;;;;;;;1.98;0.70;;;;;;;29.77;20.35;101098.90;1693698;83;25325;-59
2021/05/22 10:39:44;;;;;;;3.72;0.62;;;;;;;29.89;19.54;101100.16;1685205;84;25818;-59
2021/05/22 10:42:29;;;;;;;7.95;1.07;;;;;;;29.70;19.25;101090.77;1681890;83;25621;-62
2021/05/22 10:44:57;;;;;;;5.22;0.80;;;;;;;29.32;19.48;101071.67;1692200;83;25534;-58
2021/05/22 10:47:29;;;;;;;7.05;1.45;;;;;;;29.19;20.10;101068.69;1671964;85;28155;-59
2021/05/22 10:50:05;;;;;;;5.70;0.85;;;;;;;29.24;19.98;101078.47;1670412;85;25619;-59
2021/05/22 10:52:39;;;;;;;4.40;0.80;;;;;;;28.99;20.42;101077.00;1686050;83;25627;-62
2021/05/22 10:55:13;;;;;;;2.45;1.45;;;;;;;28.70;20.48;101059.57;1688227;84;25937;-61
2021/05/22 10:57:57;;;;;;;4.92;0.90;;;;;;;28.58;21.56;101059.66;1686438;84;25284;-61
2021/05/22 11:00:26;;;;;;;5.67;1.25;;;;;;;28.62;21.70;101053.92;1685970;83;27362;-62
2021/05/22 11:03:08;;;;;;;2.72;0.90;;;;;;;28.65;19.83;101062.27;1685491;83;25345;-61
2021/05/22 11:05:39;;;;;;;2.22;0.90;;;;;;;28.65;19.01;101058.12;1671406;84;25660;-61
2021/05/22 11:08:14;;;;;;;10.10;1.22;;;;;;;28.70;19.62;101054.03;1686200;83;25735;-61
2021/05/22 11:10:48;;;;;;;3.67;0.80;;;;;;;29.15;19.07;101035.12;1685700;83;25693;-60
2021/05/22 11:13:24;;;;;;;4.37;0.85;;;;;;;29.77;18.17;101044.84;1683321;83;27395;-60
2021/05/22 11:15:56;;;;;;;8.43;1.20;;;;;;;30.64;18.30;101034.39;1682268;84;25680;-61
2021/05/22 11:18:30;;;;;;;1.35;0.47;;;;;;;30.84;16.90;101040.11;1657542;85;25627;-60
2021/05/22 11:21:23;;;;;;;0.98;0.60;;;;;;;30.45;17.22;101030.59;1643443;85;25798;-60
2021/05/22 11:24:01;;;;;;;2.12;0.50;;;;;;;30.43;17.87;101023.09;1681382;83;25682;-60
2021/05/22 11:26:59;;;;;;;4.00;0.78;;;;;;;30.90;17.98;101022.37;1682336;82;27490;-59
2021/05/22 11:29:43;;;;;;;3.87;0.68;;;;;;;30.91;17.88;101016.28;1686031;82;25860;-59
2021/05/22 11:32:51;;;;;;;2.00;0.47;;;;;;;30.59;17.24;101023.55;1684099;84;25614;-60
2021/05/22 11:35:35;;;;;;;3.37;0.50;;;;;;;30.49;17.56;101018.41;1685611;84;25814;-60